Holmesville, Nebraska
Current Conditions -  °F | °C
As of 3:35 AM on Thursday 23 Oct 2014 (Local Time) from KBIE Reporting Station
Overcast Overcast  
Wind Chill: 60°   Ceiling: 3600
Heat Index: 60°   Visibility: 10mi
Dew Point: 58°   Wind: 3mph
Humidity: 94%   Direction: 190°S
Pressure: 30.04"   Gusts: NA
Location:  40.2°N, 96.66°W
Report Text: KBIE 230835Z AUTO 19003KT 10SM OVC036 16/15 A3004 RMK AO2 T01560147
Loading
Personal Weather Stations






























Interactive Weather Map
Tropical Storm Tracking
New forecast layout! Learn more

10-Day Weather Forecast

Advertisements
Track Severe Weather on mobile